createdAt,value
2023-01-17T00:01:09.012Z,96.66
2023-01-17T00:03:36.605Z,96.50
2023-01-17T00:06:04.681Z,96.51
2023-01-17T00:08:31.498Z,96.08
2023-01-17T00:10:58.438Z,96.07
2023-01-17T00:13:25.263Z,96.47
2023-01-17T00:15:52.207Z,95.98
2023-01-17T00:18:19.087Z,96.28
2023-01-17T00:20:45.860Z,96.66
2023-01-17T00:23:21.460Z,96.65
2023-01-17T00:25:48.251Z,95.05
2023-01-17T00:28:15.448Z,96.25
2023-01-17T00:30:42.472Z,96.08
2023-01-17T00:33:09.179Z,96.70
2023-01-17T00:35:36.034Z,96.26
2023-01-17T00:38:10.656Z,96.28
2023-01-17T00:40:39.558Z,95.92
2023-01-17T00:43:08.109Z,95.83
2023-01-17T00:45:34.867Z,95.72
2023-01-17T00:48:01.651Z,94.87
2023-01-17T00:50:28.527Z,93.55
2023-01-17T00:52:55.316Z,93.20
2023-01-17T00:55:22.049Z,93.92
2023-01-17T00:57:48.919Z,93.04
2023-01-17T01:00:18.498Z,93.21
2023-01-17T01:02:45.385Z,93.86
2023-01-17T01:05:14.219Z,94.06
2023-01-17T01:07:41.011Z,94.85
2023-01-17T01:10:08.250Z,94.88
2023-01-17T01:12:35.081Z,95.02
2023-01-17T01:15:01.844Z,94.23
2023-01-17T01:17:28.751Z,95.12
2023-01-17T01:19:55.525Z,95.50
2023-01-17T01:22:22.386Z,96.43
2023-01-17T01:24:49.148Z,97.32
2023-01-17T01:27:16.043Z,97.30
2023-01-17T01:29:42.856Z,97.62
2023-01-17T01:32:09.703Z,97.05
2023-01-17T01:34:36.573Z,97.46
2023-01-17T01:37:03.424Z,97.43
2023-01-17T01:39:30.288Z,97.26
2023-01-17T01:41:57.187Z,97.29
2023-01-17T01:44:47.161Z,97.51
2023-01-17T01:47:20.684Z,97.47
2023-01-17T01:49:48.094Z,96.60
2023-01-17T01:52:16.108Z,97.00
2023-01-17T01:55:14.749Z,96.61
2023-01-17T01:57:46.786Z,97.16
2023-01-17T02:00:22.053Z,97.64
2023-01-17T02:02:50.011Z,98.01
2023-01-17T02:05:20.911Z,97.23
2023-01-17T02:07:57.551Z,98.30
2023-01-17T02:10:24.374Z,97.90
2023-01-17T02:12:52.948Z,97.69
2023-01-17T02:15:24.958Z,97.30
2023-01-17T02:18:02.886Z,95.65
2023-01-17T02:20:58.906Z,96.49
2023-01-17T02:23:49.151Z,94.72
2023-01-17T02:26:29.387Z,96.04
2023-01-17T02:29:13.741Z,96.46
2023-01-17T02:31:45.758Z,95.92
2023-01-17T02:34:17.445Z,96.04
2023-01-17T02:36:56.974Z,96.27
2023-01-17T02:39:30.108Z,96.56
2023-01-17T02:42:09.639Z,95.84
2023-01-17T02:44:44.473Z,95.58
2023-01-17T02:47:29.235Z,95.53
2023-01-17T02:50:23.055Z,95.04
2023-01-17T02:53:00.354Z,95.26
2023-01-17T02:55:49.156Z,95.81
2023-01-17T02:58:47.067Z,96.86
2023-01-17T03:01:32.731Z,96.81
2023-01-17T03:04:20.579Z,96.84
2023-01-17T03:06:54.307Z,95.58
2023-01-17T03:09:21.880Z,96.27
2023-01-17T03:11:48.746Z,96.51
2023-01-17T03:14:15.587Z,97.15
2023-01-17T03:16:42.751Z,96.75
2023-01-17T03:19:09.656Z,98.06
2023-01-17T03:21:36.530Z,97.43
2023-01-17T03:24:03.453Z,97.13
2023-01-17T03:26:30.239Z,96.53
2023-01-17T03:28:57.187Z,97.41
2023-01-17T03:31:24.660Z,96.39
2023-01-17T03:33:51.454Z,95.79
2023-01-17T03:36:18.252Z,96.56
2023-01-17T03:38:45.033Z,97.64
2023-01-17T03:41:11.855Z,98.28
2023-01-17T03:43:38.614Z,98.11
2023-01-17T03:46:07.239Z,97.77
2023-01-17T03:48:34.157Z,98.18
2023-01-17T03:51:01.027Z,98.62
2023-01-17T03:53:27.783Z,98.69
2023-01-17T03:55:54.603Z,99.13
2023-01-17T03:58:21.342Z,99.08
2023-01-17T04:00:48.123Z,99.52
2023-01-17T04:03:14.904Z,98.97
2023-01-17T04:05:41.657Z,98.67
2023-01-17T04:08:08.813Z,99.11
2023-01-17T04:10:35.645Z,99.43
2023-01-17T04:13:02.406Z,98.46
2023-01-17T04:15:29.236Z,98.70
2023-01-17T04:17:56.335Z,98.89
2023-01-17T04:20:41.339Z,98.80
2023-01-17T04:23:08.571Z,98.56
2023-01-17T04:25:35.363Z,97.45
2023-01-17T04:28:02.855Z,98.29
2023-01-17T04:30:30.433Z,97.74
2023-01-17T04:32:57.500Z,97.87
2023-01-17T04:35:24.338Z,96.84
2023-01-17T04:37:51.651Z,98.30
2023-01-17T04:40:18.825Z,98.22
2023-01-17T04:42:45.618Z,97.69
2023-01-17T04:45:13.175Z,98.17
2023-01-17T04:47:40.292Z,97.76
2023-01-17T04:50:08.107Z,97.39
2023-01-17T04:52:37.164Z,96.28
2023-01-17T04:55:04.523Z,98.44
2023-01-17T04:57:31.301Z,98.50
2023-01-17T04:59:58.109Z,98.28
2023-01-17T05:02:25.039Z,98.77
2023-01-17T05:04:51.914Z,98.25
2023-01-17T05:07:18.755Z,99.75
2023-01-17T05:09:45.614Z,98.90
2023-01-17T05:12:12.378Z,98.70
2023-01-17T05:14:39.246Z,98.94
2023-01-17T05:17:06.124Z,99.10
2023-01-17T05:19:32.875Z,99.40
2023-01-17T05:21:59.714Z,99.61
2023-01-17T05:24:26.494Z,98.78
2023-01-17T05:26:53.326Z,99.19
2023-01-17T05:29:21.005Z,99.92
2023-01-17T05:31:47.808Z,100.00
2023-01-17T05:34:14.612Z,100.00
2023-01-17T05:36:41.456Z,99.21
2023-01-17T05:39:08.228Z,100.00
2023-01-17T05:41:35.144Z,100.00
2023-01-17T05:44:01.911Z,99.54
2023-01-17T05:46:28.731Z,99.78
2023-01-17T05:48:55.580Z,99.56
2023-01-17T05:51:22.444Z,99.43
2023-01-17T05:53:49.233Z,99.40
2023-01-17T05:56:16.001Z,99.15
2023-01-17T05:58:42.777Z,99.34
2023-01-17T06:01:09.566Z,99.07
2023-01-17T06:03:36.402Z,99.83
2023-01-17T06:06:04.102Z,99.56
2023-01-17T06:08:31.124Z,98.77
2023-01-17T06:11:00.689Z,99.41
2023-01-17T06:13:27.527Z,99.32
2023-01-17T06:15:54.313Z,99.13
2023-01-17T06:18:21.121Z,99.72
2023-01-17T06:20:53.404Z,100.00
2023-01-17T06:23:20.296Z,100.00
2023-01-17T06:25:48.487Z,100.00
2023-01-17T06:28:20.243Z,100.00
2023-01-17T06:30:47.760Z,100.00
2023-01-17T06:33:15.274Z,100.00
2023-01-17T06:35:52.038Z,100.00
2023-01-17T06:38:19.429Z,100.00
2023-01-17T06:40:46.270Z,100.00
2023-01-17T06:43:13.222Z,99.39
2023-01-17T06:45:40.136Z,99.66
2023-01-17T06:48:07.145Z,100.00
2023-01-17T06:50:34.201Z,100.00
2023-01-17T06:53:06.885Z,100.00
2023-01-17T06:55:35.346Z,99.67
2023-01-17T06:58:03.212Z,99.50
2023-01-17T07:00:31.975Z,100.00
2023-01-17T07:02:58.769Z,100.00
2023-01-17T07:05:25.938Z,100.00
2023-01-17T07:07:52.783Z,100.00
2023-01-17T07:10:19.955Z,100.00
2023-01-17T07:12:47.227Z,100.00
2023-01-17T07:15:14.180Z,100.00
2023-01-17T07:17:41.176Z,100.00
2023-01-17T07:20:08.860Z,100.00
2023-01-17T07:22:35.724Z,99.91
2023-01-17T07:25:02.472Z,100.00
2023-01-17T07:27:29.261Z,100.00
2023-01-17T07:29:56.833Z,100.00
2023-01-17T07:32:23.644Z,100.00
2023-01-17T07:34:50.447Z,100.00
2023-01-17T07:37:17.311Z,99.91
2023-01-17T07:39:44.157Z,100.00
2023-01-17T07:42:10.975Z,100.00
2023-01-17T07:44:39.436Z,100.00
2023-01-17T07:47:07.918Z,100.00
2023-01-17T07:49:34.738Z,99.89
2023-01-17T07:52:01.542Z,100.00
2023-01-17T07:54:28.413Z,99.71
2023-01-17T07:56:55.543Z,98.02
2023-01-17T07:59:22.478Z,98.50
2023-01-17T08:01:49.435Z,97.55
2023-01-17T08:04:16.367Z,99.15
2023-01-17T08:06:44.445Z,99.42
2023-01-17T08:09:11.288Z,99.55
2023-01-17T08:11:38.082Z,99.60
2023-01-17T08:14:05.073Z,100.00
2023-01-17T08:16:31.921Z,98.48
2023-01-17T08:18:58.751Z,97.83
2023-01-17T08:21:25.501Z,98.87
2023-01-17T08:23:52.958Z,99.60
2023-01-17T08:26:21.787Z,98.80
2023-01-17T08:28:54.043Z,98.72
2023-01-17T08:31:20.900Z,98.93
2023-01-17T08:33:47.719Z,97.35
2023-01-17T08:36:14.621Z,97.49
2023-01-17T08:38:41.481Z,97.04
2023-01-17T08:41:08.332Z,96.17
2023-01-17T08:43:35.197Z,97.03
2023-01-17T08:46:02.077Z,96.45
2023-01-17T08:48:28.981Z,95.94
2023-01-17T08:51:00.756Z,96.52
2023-01-17T08:53:27.578Z,96.56
2023-01-17T08:55:58.453Z,95.84
2023-01-17T08:58:26.712Z,94.75
2023-01-17T09:00:53.796Z,95.80
2023-01-17T09:03:20.942Z,95.89
2023-01-17T09:05:47.895Z,96.29
2023-01-17T09:08:14.881Z,95.91
2023-01-17T09:10:41.642Z,96.12
2023-01-17T09:13:08.480Z,95.60
2023-01-17T09:15:35.305Z,95.54
2023-01-17T09:18:02.068Z,96.39
2023-01-17T09:20:28.975Z,96.52
2023-01-17T09:22:56.278Z,96.24
2023-01-17T09:25:23.115Z,96.32
2023-01-17T09:27:49.927Z,95.93
2023-01-17T09:30:17.210Z,95.73
2023-01-17T09:32:44.079Z,95.72
2023-01-17T09:35:10.968Z,95.54
2023-01-17T09:37:37.800Z,95.96
2023-01-17T09:40:05.119Z,94.77
2023-01-17T09:42:37.151Z,94.70
2023-01-17T09:45:04.876Z,94.85
2023-01-17T09:47:37.186Z,95.30
2023-01-17T09:50:12.985Z,93.97
2023-01-17T09:52:39.907Z,93.56
2023-01-17T09:55:08.138Z,93.25
2023-01-17T09:57:58.344Z,91.36
2023-01-17T10:00:34.069Z,90.93
2023-01-17T10:03:29.083Z,90.21
2023-01-17T10:06:14.094Z,89.51
2023-01-17T10:08:59.528Z,89.89
2023-01-17T10:11:52.675Z,87.85
2023-01-17T10:14:34.392Z,86.96
2023-01-17T10:17:19.178Z,86.61
2023-01-17T10:20:07.452Z,86.56
2023-01-17T10:22:55.612Z,83.14
2023-01-17T10:25:43.287Z,83.37
2023-01-17T10:28:16.946Z,83.35
2023-01-17T10:30:51.958Z,81.92
2023-01-17T10:33:21.949Z,81.53
2023-01-17T10:35:55.900Z,81.22
2023-01-17T10:38:30.772Z,81.63
2023-01-17T10:41:04.848Z,81.30
2023-01-17T10:43:57.676Z,79.94
2023-01-17T10:47:12.279Z,80.76
2023-01-17T10:49:43.766Z,80.45
2023-01-17T10:52:32.936Z,81.07
2023-01-17T10:55:23.054Z,80.63
2023-01-17T10:57:51.156Z,81.38
2023-01-17T11:00:37.647Z,82.25
2023-01-17T11:03:06.302Z,82.04
2023-01-17T11:05:34.185Z,83.30
2023-01-17T11:08:18.934Z,84.05
2023-01-17T11:10:52.931Z,83.73
2023-01-17T11:13:33.238Z,83.88
2023-01-17T11:16:07.672Z,83.48
2023-01-17T11:18:40.771Z,83.14
2023-01-17T11:21:20.863Z,82.28
2023-01-17T11:23:50.403Z,82.99
2023-01-17T11:26:27.897Z,82.29
2023-01-17T11:29:25.809Z,81.97
2023-01-17T11:31:53.777Z,82.63
2023-01-17T11:34:26.499Z,82.57
2023-01-17T11:37:14.749Z,81.99
2023-01-17T11:39:42.995Z,81.55
2023-01-17T11:42:33.330Z,82.37
2023-01-17T11:45:26.754Z,82.16
2023-01-17T11:48:08.847Z,80.82
2023-01-17T11:50:56.312Z,80.38
2023-01-17T11:53:30.202Z,79.70
2023-01-17T11:56:09.981Z,78.85
2023-01-17T11:58:42.528Z,79.00
2023-01-17T12:01:11.972Z,78.31
2023-01-17T12:03:58.372Z,78.55
2023-01-17T12:06:51.535Z,79.06
2023-01-17T12:09:46.761Z,79.11
2023-01-17T12:13:04.019Z,79.59
2023-01-17T12:15:36.716Z,79.42
2023-01-17T12:18:12.300Z,78.27
2023-01-17T12:20:55.344Z,78.82
2023-01-17T12:23:49.640Z,79.43
2023-01-17T12:26:18.965Z,79.13
2023-01-17T12:29:00.778Z,79.11
2023-01-17T12:31:38.953Z,79.02
2023-01-17T12:34:25.044Z,77.99
2023-01-17T12:37:12.936Z,78.01
2023-01-17T12:39:46.952Z,77.02
2023-01-17T12:42:24.850Z,77.18
2023-01-17T12:45:00.704Z,77.08
2023-01-17T12:47:28.031Z,77.11
2023-01-17T12:50:28.004Z,77.70
2023-01-17T12:52:54.767Z,77.67
2023-01-17T12:55:35.991Z,78.12
2023-01-17T12:58:06.451Z,78.42
2023-01-17T13:00:38.281Z,78.49
2023-01-17T13:03:20.615Z,78.44
2023-01-17T13:05:47.891Z,78.62
2023-01-17T13:08:23.525Z,78.25
2023-01-17T13:10:53.264Z,78.96
2023-01-17T13:13:31.093Z,79.36
2023-01-17T13:16:20.291Z,79.52
2023-01-17T13:18:49.069Z,79.54
2023-01-17T13:21:34.683Z,79.71
2023-01-17T13:24:19.239Z,79.97
2023-01-17T13:26:59.620Z,80.13
2023-01-17T13:29:57.085Z,80.48
2023-01-17T13:32:58.601Z,81.25
2023-01-17T13:36:10.710Z,81.75
2023-01-17T13:38:59.959Z,81.82
2023-01-17T13:41:53.533Z,81.82
2023-01-17T13:44:24.326Z,80.61
2023-01-17T13:46:58.743Z,79.59
2023-01-17T13:49:33.639Z,79.46
2023-01-17T13:52:10.115Z,79.72
2023-01-17T13:54:46.143Z,79.97
2023-01-17T13:57:24.916Z,80.12
2023-01-17T13:59:54.579Z,80.14
2023-01-17T14:02:33.485Z,80.11
2023-01-17T14:05:19.028Z,81.33
2023-01-17T14:07:56.040Z,82.55
2023-01-17T14:10:33.744Z,82.85
2023-01-17T14:13:01.919Z,83.73
2023-01-17T14:15:31.427Z,83.47
2023-01-17T14:18:03.512Z,83.82
2023-01-17T14:20:50.446Z,84.13
2023-01-17T14:23:32.031Z,84.17
2023-01-17T14:26:12.536Z,84.89
2023-01-17T14:28:39.451Z,84.73
2023-01-17T14:31:11.062Z,84.27
2023-01-17T14:33:39.706Z,84.70
2023-01-17T14:36:22.758Z,84.27
2023-01-17T14:38:50.698Z,84.63
2023-01-17T14:41:29.539Z,85.26
2023-01-17T14:43:58.147Z,85.05
2023-01-17T14:46:30.157Z,85.56
2023-01-17T14:49:02.869Z,85.47
2023-01-17T14:51:30.299Z,86.24
2023-01-17T14:54:01.319Z,86.43
2023-01-17T14:56:30.208Z,86.41
2023-01-17T14:59:11.524Z,87.16
2023-01-17T15:01:38.702Z,86.94
2023-01-17T15:04:05.677Z,87.38
2023-01-17T15:06:40.743Z,87.41
2023-01-17T15:09:16.503Z,87.96
2023-01-17T15:11:46.282Z,88.19
2023-01-17T15:14:22.030Z,88.36
2023-01-17T15:16:48.945Z,88.62
2023-01-17T15:19:15.716Z,88.29
2023-01-17T15:21:44.089Z,89.05
2023-01-17T15:24:21.930Z,89.04
2023-01-17T15:26:49.355Z,89.49
2023-01-17T15:29:29.146Z,89.85
2023-01-17T15:31:58.599Z,89.80
2023-01-17T15:34:31.132Z,89.94
2023-01-17T15:37:04.027Z,90.02
2023-01-17T15:39:34.586Z,90.23
2023-01-17T15:42:06.650Z,90.44
2023-01-17T15:44:48.413Z,90.96
2023-01-17T15:47:37.297Z,91.56
2023-01-17T15:50:29.150Z,91.55
2023-01-17T15:53:02.120Z,91.98
2023-01-17T15:55:39.536Z,92.17
2023-01-17T15:58:23.320Z,93.10
2023-01-17T16:00:50.275Z,92.80
2023-01-17T16:03:20.090Z,93.72
2023-01-17T16:05:47.556Z,94.15
2023-01-17T16:08:14.265Z,93.95
2023-01-17T16:10:41.283Z,94.94
2023-01-17T16:13:10.252Z,95.34
2023-01-17T16:15:38.556Z,95.33
2023-01-17T16:18:12.470Z,95.91
2023-01-17T16:21:35.104Z,97.20
2023-01-17T16:24:02.531Z,97.73
2023-01-17T16:26:29.484Z,97.65
2023-01-17T16:28:56.658Z,98.51
2023-01-17T16:31:23.679Z,98.75
2023-01-17T16:33:51.154Z,99.13
2023-01-17T16:36:18.705Z,99.30
2023-01-17T16:38:45.832Z,99.72
2023-01-17T16:41:13.035Z,99.77
2023-01-17T16:43:39.878Z,99.63
2023-01-17T16:46:07.530Z,100.00
2023-01-17T16:48:34.277Z,100.00
2023-01-17T16:51:06.077Z,100.00
2023-01-17T16:53:33.057Z,100.00
2023-01-17T16:56:08.368Z,100.00
2023-01-17T16:58:35.146Z,100.00
2023-01-17T17:01:02.961Z,100.00
2023-01-17T17:03:30.112Z,100.00
2023-01-17T17:05:59.648Z,100.00
2023-01-17T17:08:27.167Z,100.00
2023-01-17T17:10:53.956Z,100.00
2023-01-17T17:13:21.399Z,100.00
2023-01-17T17:15:48.452Z,100.00
2023-01-17T17:18:17.758Z,100.00
2023-01-17T17:20:46.036Z,100.00
2023-01-17T17:23:12.942Z,100.00
2023-01-17T17:25:39.940Z,100.00
2023-01-17T17:28:07.173Z,100.00
2023-01-17T17:30:34.103Z,100.00
2023-01-17T17:33:01.186Z,100.00
2023-01-17T17:35:28.384Z,100.00
2023-01-17T17:37:55.956Z,100.00
2023-01-17T17:40:22.931Z,100.00
2023-01-17T17:42:49.739Z,100.00
2023-01-17T17:45:17.119Z,100.00
2023-01-17T17:47:44.359Z,100.00
2023-01-17T17:50:11.891Z,100.00
2023-01-17T17:52:39.119Z,100.00
2023-01-17T17:55:06.498Z,100.00
2023-01-17T17:57:33.247Z,100.00
2023-01-17T18:00:00.379Z,100.00
2023-01-17T18:02:27.443Z,100.00
2023-01-17T18:04:55.234Z,100.00
2023-01-17T18:07:22.488Z,100.00
2023-01-17T18:09:49.321Z,100.00
2023-01-17T18:12:16.243Z,100.00
2023-01-17T18:14:44.091Z,100.00
2023-01-17T18:17:11.545Z,100.00
2023-01-17T18:19:38.806Z,100.00
2023-01-17T18:22:06.189Z,100.00
2023-01-17T18:24:33.466Z,100.00
2023-01-17T18:27:00.963Z,100.00
2023-01-17T18:29:29.583Z,100.00
2023-01-17T18:31:57.287Z,100.00
2023-01-17T18:34:28.227Z,100.00
2023-01-17T18:36:56.559Z,100.00
2023-01-17T18:39:29.295Z,100.00
2023-01-17T18:41:57.011Z,100.00
2023-01-17T18:44:26.215Z,100.00
2023-01-17T18:46:54.840Z,100.00
2023-01-17T18:49:22.486Z,100.00
2023-01-17T18:51:50.277Z,100.00
2023-01-17T18:54:21.281Z,100.00
2023-01-17T18:56:48.737Z,100.00
2023-01-17T18:59:16.580Z,100.00
2023-01-17T19:01:44.331Z,100.00
2023-01-17T19:04:13.908Z,100.00
2023-01-17T19:06:45.311Z,100.00
2023-01-17T19:09:14.843Z,100.00
2023-01-17T19:11:43.714Z,100.00
2023-01-17T19:14:12.077Z,100.00
2023-01-17T19:16:41.635Z,100.00
2023-01-17T19:19:13.777Z,100.00
2023-01-17T19:21:41.588Z,100.00
2023-01-17T19:24:11.294Z,100.00
2023-01-17T19:26:38.548Z,100.00
2023-01-17T19:29:05.575Z,100.00
2023-01-17T19:31:37.192Z,100.00
2023-01-17T19:34:05.345Z,100.00
2023-01-17T19:36:35.097Z,100.00
2023-01-17T19:39:06.177Z,100.00
2023-01-17T19:41:36.658Z,100.00
2023-01-17T19:44:07.584Z,100.00
2023-01-17T19:46:36.077Z,100.00
2023-01-17T19:49:04.873Z,100.00
2023-01-17T19:51:32.403Z,100.00
2023-01-17T19:54:02.153Z,100.00
2023-01-17T19:56:32.789Z,100.00
2023-01-17T19:59:01.852Z,100.00
2023-01-17T20:01:33.220Z,100.00
2023-01-17T20:04:01.787Z,100.00
2023-01-17T20:06:33.887Z,100.00
2023-01-17T20:09:01.935Z,100.00
2023-01-17T20:11:29.899Z,100.00
2023-01-17T20:13:58.955Z,100.00
2023-01-17T20:16:28.696Z,100.00
2023-01-17T20:18:58.153Z,100.00
2023-01-17T20:21:27.773Z,100.00
2023-01-17T20:23:57.482Z,100.00
2023-01-17T20:26:30.077Z,100.00
2023-01-17T20:28:57.508Z,100.00
2023-01-17T20:31:26.158Z,100.00
2023-01-17T20:33:55.750Z,100.00
2023-01-17T20:36:26.508Z,100.00
2023-01-17T20:38:53.796Z,100.00
2023-01-17T20:41:22.719Z,100.00
2023-01-17T20:43:56.236Z,100.00
2023-01-17T20:46:26.320Z,100.00
2023-01-17T20:48:57.246Z,100.00
2023-01-17T20:51:27.112Z,100.00
2023-01-17T20:53:59.516Z,100.00
2023-01-17T20:56:27.072Z,100.00
2023-01-17T20:58:57.877Z,100.00
2023-01-17T21:01:25.162Z,100.00
2023-01-17T21:03:52.923Z,100.00
2023-01-17T21:06:22.192Z,100.00
2023-01-17T21:08:51.627Z,100.00
2023-01-17T21:11:24.239Z,100.00
2023-01-17T21:13:52.460Z,100.00
2023-01-17T21:16:21.910Z,100.00
2023-01-17T21:18:51.545Z,100.00
2023-01-17T21:21:20.971Z,100.00
2023-01-17T21:23:50.026Z,100.00
2023-01-17T21:26:17.889Z,100.00
2023-01-17T21:28:46.547Z,100.00
2023-01-17T21:31:30.634Z,100.00
2023-01-17T21:33:59.438Z,100.00
2023-01-17T21:36:40.010Z,100.00
2023-01-17T21:39:11.362Z,100.00
2023-01-17T21:41:40.653Z,100.00
2023-01-17T21:44:12.640Z,100.00
2023-01-17T21:46:40.990Z,100.00
2023-01-17T21:49:10.128Z,100.00
2023-01-17T21:51:37.053Z,100.00
2023-01-17T21:54:03.999Z,100.00
2023-01-17T21:56:30.724Z,100.00
2023-01-17T21:58:58.658Z,100.00
2023-01-17T22:01:28.483Z,100.00
2023-01-17T22:04:00.601Z,100.00
2023-01-17T22:06:30.509Z,100.00
2023-01-17T22:08:58.280Z,100.00
2023-01-17T22:11:26.998Z,100.00
2023-01-17T22:13:54.129Z,100.00
2023-01-17T22:16:25.067Z,100.00
2023-01-17T22:18:51.994Z,100.00
2023-01-17T22:21:22.182Z,100.00
2023-01-17T22:23:54.575Z,100.00
2023-01-17T22:26:24.301Z,100.00
2023-01-17T22:28:51.263Z,100.00
2023-01-17T22:31:20.616Z,100.00
2023-01-17T22:33:52.624Z,100.00
2023-01-17T22:36:19.805Z,100.00
2023-01-17T22:38:47.214Z,100.00
2023-01-17T22:41:17.347Z,100.00
2023-01-17T22:43:46.241Z,100.00
2023-01-17T22:46:16.835Z,100.00
2023-01-17T22:48:44.378Z,100.00
2023-01-17T22:51:13.413Z,100.00
2023-01-17T22:53:42.055Z,100.00
2023-01-17T22:56:12.492Z,100.00
2023-01-17T22:58:40.885Z,100.00
2023-01-17T23:01:13.928Z,100.00
2023-01-17T23:03:41.867Z,100.00
2023-01-17T23:06:10.252Z,100.00
2023-01-17T23:08:37.848Z,100.00
2023-01-17T23:11:26.380Z,100.00
2023-01-17T23:13:53.301Z,100.00
2023-01-17T23:16:20.184Z,100.00
2023-01-17T23:18:47.123Z,100.00
2023-01-17T23:21:13.923Z,100.00
2023-01-17T23:23:40.757Z,100.00
2023-01-17T23:26:07.599Z,100.00
2023-01-17T23:28:34.387Z,100.00
2023-01-17T23:31:02.604Z,100.00
2023-01-17T23:33:29.438Z,100.00
2023-01-17T23:35:56.337Z,100.00
2023-01-17T23:38:23.214Z,100.00
2023-01-17T23:40:54.012Z,100.00
2023-01-17T23:43:20.885Z,100.00
2023-01-17T23:45:48.389Z,100.00
2023-01-17T23:48:15.910Z,100.00
2023-01-17T23:50:45.550Z,100.00
2023-01-17T23:53:14.147Z,100.00
2023-01-17T23:55:44.382Z,100.00
2023-01-17T23:58:12.004Z,100.00
